createdAt,value
2023-05-08T00:01:15.585Z,71
2023-05-08T00:04:15.676Z,71
2023-05-08T00:07:15.571Z,71
2023-05-08T00:10:15.731Z,71
2023-05-08T00:13:15.622Z,71
2023-05-08T00:16:15.595Z,71
2023-05-08T00:19:15.551Z,71
2023-05-08T00:22:15.556Z,71
2023-05-08T00:25:15.560Z,71
2023-05-08T00:28:15.567Z,72
2023-05-08T00:31:15.557Z,71
2023-05-08T00:34:15.536Z,72
2023-05-08T00:37:15.546Z,71
2023-05-08T00:40:15.827Z,71
2023-05-08T00:43:15.553Z,71
2023-05-08T00:46:15.548Z,72
2023-05-08T00:52:15.553Z,72
2023-05-08T00:55:15.583Z,71
2023-05-08T00:58:15.560Z,71
2023-05-08T01:01:15.579Z,71
2023-05-08T01:04:15.553Z,71
2023-05-08T01:07:15.534Z,71
2023-05-08T01:10:15.644Z,71
2023-05-08T01:13:15.594Z,71
2023-05-08T01:16:15.564Z,71
2023-05-08T01:19:15.548Z,71
2023-05-08T01:22:15.536Z,71
2023-05-08T01:25:15.535Z,71
2023-05-08T01:28:15.558Z,71
2023-05-08T01:31:15.534Z,71
2023-05-08T01:34:15.528Z,71
2023-05-08T01:37:15.548Z,71
2023-05-08T01:40:15.691Z,71
2023-05-08T01:43:15.541Z,71
2023-05-08T01:46:15.563Z,71
2023-05-08T01:49:15.532Z,71
2023-05-08T01:52:15.522Z,71
2023-05-08T01:55:15.541Z,71
2023-05-08T02:01:15.551Z,71
2023-05-08T02:04:15.581Z,71
2023-05-08T02:07:15.545Z,71
2023-05-08T02:10:15.654Z,71
2023-05-08T02:13:15.553Z,71
2023-05-08T02:16:15.557Z,71
2023-05-08T02:19:15.587Z,71
2023-05-08T02:22:15.582Z,71
2023-05-08T02:25:15.532Z,71
2023-05-08T02:28:15.528Z,71
2023-05-08T02:31:15.537Z,71
2023-05-08T02:34:15.538Z,71
2023-05-08T02:37:15.518Z,72
2023-05-08T02:40:15.659Z,72
2023-05-08T02:43:15.528Z,72
2023-05-08T02:46:15.728Z,72
2023-05-08T02:49:15.537Z,72
2023-05-08T02:52:15.513Z,72
2023-05-08T02:55:15.519Z,72
2023-05-08T02:58:15.542Z,72
2023-05-08T03:01:15.541Z,72
2023-05-08T03:04:15.516Z,72
2023-05-08T03:07:15.523Z,72
2023-05-08T03:10:15.621Z,72
2023-05-08T03:13:15.591Z,72
2023-05-08T03:16:15.547Z,72
2023-05-08T03:19:15.517Z,72
2023-05-08T03:22:15.528Z,72
2023-05-08T03:25:15.505Z,72
2023-05-08T03:28:15.499Z,72
2023-05-08T03:31:15.543Z,72
2023-05-08T03:34:15.501Z,71
2023-05-08T03:37:15.545Z,72
2023-05-08T03:40:15.521Z,71
2023-05-08T03:43:15.506Z,71
2023-05-08T03:46:15.552Z,71
2023-05-08T03:49:15.493Z,71
2023-05-08T03:52:15.512Z,71
2023-05-08T03:55:15.502Z,71
2023-05-08T03:58:15.523Z,72
2023-05-08T04:01:15.501Z,72
2023-05-08T04:04:15.597Z,72
2023-05-08T04:07:15.486Z,72
2023-05-08T04:10:15.675Z,72
2023-05-08T04:13:15.528Z,72
2023-05-08T04:16:15.504Z,72
2023-05-08T04:19:15.515Z,72
2023-05-08T04:22:15.493Z,72
2023-05-08T04:25:15.639Z,72
2023-05-08T04:28:15.499Z,72
2023-05-08T04:31:15.565Z,72
2023-05-08T04:34:15.502Z,72
2023-05-08T04:37:15.485Z,72
2023-05-08T04:40:15.523Z,72
2023-05-08T04:43:15.488Z,72
2023-05-08T04:46:15.522Z,72
2023-05-08T04:49:15.497Z,72
2023-05-08T04:52:15.494Z,72
2023-05-08T04:55:15.520Z,72
2023-05-08T04:58:15.483Z,72
2023-05-08T05:01:15.517Z,72
2023-05-08T05:04:15.542Z,72
2023-05-08T05:07:15.489Z,72
2023-05-08T05:10:15.484Z,72
2023-05-08T05:13:15.506Z,72
2023-05-08T05:16:15.504Z,72
2023-05-08T05:19:15.473Z,72
2023-05-08T05:22:15.482Z,72
2023-05-08T05:25:15.588Z,72
2023-05-08T05:28:15.473Z,72
2023-05-08T05:31:15.483Z,72
2023-05-08T05:34:15.466Z,72
2023-05-08T05:37:15.471Z,72
2023-05-08T05:40:15.469Z,72
2023-05-08T05:43:15.473Z,72
2023-05-08T05:46:15.464Z,72
2023-05-08T05:49:15.456Z,72
2023-05-08T05:52:15.479Z,72
2023-05-08T05:55:15.576Z,73
2023-05-08T05:58:15.456Z,73
2023-05-08T06:01:15.449Z,73
2023-05-08T06:04:15.461Z,73
2023-05-08T06:07:15.455Z,73
2023-05-08T06:10:15.447Z,73
2023-05-08T06:13:15.477Z,73
2023-05-08T06:16:15.549Z,73
2023-05-08T06:19:15.449Z,73
2023-05-08T06:22:15.435Z,73
2023-05-08T06:25:15.550Z,73
2023-05-08T06:28:15.457Z,73
2023-05-08T06:31:15.447Z,73
2023-05-08T06:34:15.451Z,73
2023-05-08T06:37:15.463Z,73
2023-05-08T06:40:15.437Z,73
2023-05-08T06:43:15.499Z,73
2023-05-08T06:46:15.488Z,73
2023-05-08T06:49:15.457Z,73
2023-05-08T06:52:15.447Z,73
2023-05-08T06:58:15.454Z,73
2023-05-08T07:01:15.464Z,73
2023-05-08T07:04:15.480Z,73
2023-05-08T07:07:15.464Z,73
2023-05-08T07:10:15.453Z,73
2023-05-08T07:13:15.495Z,74
2023-05-08T07:16:15.490Z,74
2023-05-08T07:19:15.438Z,74
2023-05-08T07:22:15.448Z,74
2023-05-08T07:25:15.493Z,74
2023-05-08T07:28:15.428Z,74
2023-05-08T07:31:15.475Z,74
2023-05-08T07:34:15.433Z,74
2023-05-08T07:37:15.479Z,74
2023-05-08T07:40:15.463Z,74
2023-05-08T07:43:15.429Z,74
2023-05-08T07:46:15.451Z,74
2023-05-08T07:49:15.425Z,74
2023-05-08T07:52:15.417Z,74
2023-05-08T07:55:15.429Z,74
2023-05-08T07:58:15.435Z,74
2023-05-08T08:01:15.418Z,74
2023-05-08T08:04:15.624Z,74
2023-05-08T08:07:15.409Z,74
2023-05-08T08:10:15.418Z,74
2023-05-08T08:13:15.470Z,74
2023-05-08T08:16:15.425Z,74
2023-05-08T08:19:15.413Z,74
2023-05-08T08:22:15.431Z,74
2023-05-08T08:25:15.507Z,74
2023-05-08T08:28:15.424Z,74
2023-05-08T08:31:15.456Z,74
2023-05-08T08:34:15.423Z,74
2023-05-08T08:37:15.426Z,74
2023-05-08T08:40:15.425Z,74
2023-05-08T08:43:15.410Z,74
2023-05-08T08:46:15.616Z,74
2023-05-08T08:49:15.421Z,73
2023-05-08T08:52:15.416Z,73
2023-05-08T08:58:15.420Z,73
2023-05-08T09:01:15.408Z,73
2023-05-08T09:04:15.498Z,73
2023-05-08T09:07:15.422Z,73
2023-05-08T09:10:15.465Z,73
2023-05-08T09:13:16.241Z,73
2023-05-08T09:16:15.429Z,73
2023-05-08T09:19:15.403Z,73
2023-05-08T09:22:15.403Z,73
2023-05-08T09:25:15.519Z,73
2023-05-08T09:28:15.424Z,73
2023-05-08T09:31:15.422Z,73
2023-05-08T09:34:15.403Z,73
2023-05-08T09:37:15.400Z,73
2023-05-08T09:40:15.397Z,73
2023-05-08T09:43:15.395Z,73
2023-05-08T09:46:15.473Z,73
2023-05-08T09:49:15.424Z,73
2023-05-08T09:52:15.406Z,73
2023-05-08T09:55:15.408Z,73
2023-05-08T09:58:15.412Z,73
2023-05-08T10:01:15.405Z,73
2023-05-08T10:04:15.454Z,73
2023-05-08T10:07:15.384Z,73
2023-05-08T10:10:15.441Z,73
2023-05-08T10:13:15.430Z,73
2023-05-08T10:16:15.392Z,73
2023-05-08T10:22:15.373Z,74
2023-05-08T10:25:15.376Z,74
2023-05-08T10:28:15.390Z,74
2023-05-08T10:31:15.489Z,74
2023-05-08T10:34:15.377Z,74
2023-05-08T10:37:15.381Z,74
2023-05-08T10:40:15.492Z,74
2023-05-08T10:43:15.388Z,74
2023-05-08T10:46:15.376Z,73
2023-05-08T10:49:15.376Z,73
2023-05-08T10:52:15.365Z,73
2023-05-08T10:55:15.390Z,73
2023-05-08T10:58:15.406Z,73
2023-05-08T11:01:15.388Z,73
2023-05-08T11:04:15.456Z,73
2023-05-08T11:07:15.367Z,72
2023-05-08T11:10:15.428Z,72
2023-05-08T11:13:15.391Z,72
2023-05-08T11:16:15.425Z,72
2023-05-08T11:19:15.363Z,72
2023-05-08T11:22:15.360Z,72
2023-05-08T11:25:15.374Z,72
2023-05-08T11:28:15.382Z,72
2023-05-08T11:31:15.380Z,71
2023-05-08T11:34:15.363Z,71
2023-05-08T11:37:15.354Z,71
2023-05-08T11:40:15.479Z,71
2023-05-08T11:43:15.356Z,71
2023-05-08T11:46:15.369Z,71
2023-05-08T11:49:15.398Z,71
2023-05-08T11:52:15.380Z,71
2023-05-08T11:55:15.351Z,70
2023-05-08T11:58:15.369Z,70
2023-05-08T12:01:15.370Z,70
2023-05-08T12:04:15.500Z,70
2023-05-08T12:07:15.360Z,70
2023-05-08T12:10:15.782Z,70
2023-05-08T12:16:15.364Z,70
2023-05-08T12:19:15.386Z,70
2023-05-08T12:22:15.360Z,70
2023-05-08T12:25:15.569Z,70
2023-05-08T12:28:15.348Z,70
2023-05-08T12:31:15.355Z,70
2023-05-08T12:34:15.349Z,70
2023-05-08T12:37:15.333Z,70
2023-05-08T12:40:15.485Z,70
2023-05-08T12:43:15.366Z,70
2023-05-08T12:46:15.404Z,70
2023-05-08T12:49:15.352Z,70
2023-05-08T12:52:15.360Z,70
2023-05-08T12:55:15.348Z,70
2023-05-08T12:58:15.960Z,70
2023-05-08T13:01:15.341Z,69
2023-05-08T13:04:15.557Z,69
2023-05-08T13:07:15.352Z,69
2023-05-08T13:10:15.481Z,69
2023-05-08T13:13:15.425Z,69
2023-05-08T13:16:15.463Z,69
2023-05-08T13:19:15.336Z,69
2023-05-08T13:22:15.340Z,69
2023-05-08T13:25:15.517Z,69
2023-05-08T13:28:15.323Z,69
2023-05-08T13:31:15.359Z,69
2023-05-08T13:34:15.336Z,69
2023-05-08T13:37:15.332Z,69
2023-05-08T13:40:15.312Z,69
2023-05-08T13:43:15.347Z,69
2023-05-08T13:46:15.357Z,69
2023-05-08T13:49:15.322Z,69
2023-05-08T13:52:15.354Z,69
2023-05-08T13:55:15.510Z,69
2023-05-08T13:58:15.336Z,69
2023-05-08T14:01:25.439Z,69
2023-05-08T14:04:15.328Z,69
2023-05-08T14:07:15.324Z,68
2023-05-08T14:10:15.308Z,68
2023-05-08T14:13:15.366Z,68
2023-05-08T14:16:15.347Z,68
2023-05-08T14:19:15.305Z,68
2023-05-08T14:22:15.305Z,68
2023-05-08T14:25:15.441Z,68
2023-05-08T14:28:15.302Z,68
2023-05-08T14:31:15.345Z,68
2023-05-08T14:34:15.305Z,68
2023-05-08T14:37:15.297Z,68
2023-05-08T14:40:15.309Z,68
2023-05-08T14:43:15.308Z,68
2023-05-08T14:46:15.380Z,68
2023-05-08T14:49:22.333Z,68
2023-05-08T14:52:15.298Z,68
2023-05-08T14:55:15.487Z,68
2023-05-08T14:58:15.306Z,68
2023-05-08T15:07:15.354Z,68
2023-05-08T15:10:15.318Z,68
2023-05-08T15:13:15.345Z,68
2023-05-08T15:16:15.321Z,68
2023-05-08T15:19:15.297Z,68
2023-05-08T15:22:15.292Z,68
2023-05-08T15:25:15.479Z,68
2023-05-08T15:28:15.290Z,68
2023-05-08T15:31:15.330Z,68
2023-05-08T15:34:15.277Z,68
2023-05-08T15:37:15.300Z,68
2023-05-08T15:43:15.295Z,68
2023-05-08T15:46:15.355Z,68
2023-05-08T15:49:15.297Z,68
2023-05-08T15:52:15.281Z,68
2023-05-08T15:55:15.541Z,68
2023-05-08T15:58:15.270Z,68
2023-05-08T16:01:15.307Z,68
2023-05-08T16:04:15.271Z,68
2023-05-08T16:07:15.296Z,68
2023-05-08T16:10:15.284Z,68
2023-05-08T16:13:15.321Z,68
2023-05-08T16:16:15.284Z,68
2023-05-08T16:19:15.277Z,68
2023-05-08T16:22:15.284Z,68
2023-05-08T16:25:15.299Z,68
2023-05-08T16:28:15.294Z,68
2023-05-08T16:31:15.300Z,69
2023-05-08T16:34:15.267Z,69
2023-05-08T16:37:15.277Z,69
2023-05-08T16:40:15.260Z,69
2023-05-08T16:43:15.272Z,69
2023-05-08T16:46:15.292Z,69
2023-05-08T16:49:15.265Z,69
2023-05-08T16:52:15.268Z,69
2023-05-08T16:55:15.443Z,69
2023-05-08T16:58:15.258Z,69
2023-05-08T17:01:15.292Z,69
2023-05-08T17:04:15.275Z,69
2023-05-08T17:07:15.261Z,70
2023-05-08T17:10:15.244Z,70
2023-05-08T17:13:15.307Z,70
2023-05-08T17:16:15.329Z,70
2023-05-08T17:19:15.260Z,70
2023-05-08T17:22:15.249Z,70
2023-05-08T17:25:15.256Z,70
2023-05-08T17:28:15.278Z,70
2023-05-08T17:31:15.262Z,70
2023-05-08T17:34:15.254Z,70
2023-05-08T17:40:15.300Z,70
2023-05-08T17:43:15.271Z,70
2023-05-08T17:46:15.310Z,70
2023-05-08T17:49:17.092Z,70
2023-05-08T17:52:15.238Z,70
2023-05-08T17:55:15.234Z,70
2023-05-08T17:58:15.242Z,70
2023-05-08T18:01:15.253Z,70
2023-05-08T18:04:15.282Z,70
2023-05-08T18:07:15.263Z,70
2023-05-08T18:10:15.552Z,70
2023-05-08T18:13:15.258Z,70
2023-05-08T18:16:15.270Z,70
2023-05-08T18:19:15.249Z,71
2023-05-08T18:22:15.240Z,71
2023-05-08T18:25:15.253Z,71
2023-05-08T18:28:15.263Z,71
2023-05-08T18:31:15.269Z,71
2023-05-08T18:37:15.270Z,71
2023-05-08T18:40:15.456Z,71
2023-05-08T18:43:15.248Z,71
2023-05-08T18:46:15.320Z,71
2023-05-08T18:49:15.251Z,71
2023-05-08T18:52:15.242Z,71
2023-05-08T18:55:15.285Z,71
2023-05-08T18:58:15.242Z,71
2023-05-08T19:01:15.262Z,71
2023-05-08T19:04:15.265Z,71
2023-05-08T19:07:15.244Z,71
2023-05-08T19:10:15.491Z,72
2023-05-08T19:13:15.327Z,72
2023-05-08T19:16:15.250Z,72
2023-05-08T19:19:15.229Z,72
2023-05-08T19:22:15.232Z,72
2023-05-08T19:25:15.239Z,72
2023-05-08T19:28:15.270Z,72
2023-05-08T19:31:15.239Z,72
2023-05-08T19:34:15.254Z,72
2023-05-08T19:37:15.232Z,72
2023-05-08T19:40:15.533Z,72
2023-05-08T19:43:15.218Z,72
2023-05-08T19:46:15.275Z,72
2023-05-08T19:49:15.221Z,72
2023-05-08T19:52:15.221Z,72
2023-05-08T19:55:15.229Z,72
2023-05-08T19:58:15.211Z,72
2023-05-08T20:01:15.234Z,72
2023-05-08T20:04:15.208Z,72
2023-05-08T20:07:15.236Z,72
2023-05-08T20:10:15.378Z,72
2023-05-08T20:13:15.276Z,72
2023-05-08T20:16:15.286Z,73
2023-05-08T20:19:15.255Z,73
2023-05-08T20:22:15.221Z,73
2023-05-08T20:25:15.205Z,73
2023-05-08T20:28:15.391Z,73
2023-05-08T20:31:15.251Z,73
2023-05-08T20:34:15.227Z,73
2023-05-08T20:37:15.278Z,73
2023-05-08T20:40:15.510Z,73
2023-05-08T20:43:15.209Z,73
2023-05-08T20:46:15.256Z,73
2023-05-08T20:49:15.213Z,73
2023-05-08T20:52:15.222Z,73
2023-05-08T20:55:15.338Z,74
2023-05-08T20:58:15.221Z,74
2023-05-08T21:01:15.230Z,74
2023-05-08T21:04:15.255Z,74
2023-05-08T21:07:15.225Z,74
2023-05-08T21:10:15.361Z,74
2023-05-08T21:13:15.281Z,74
2023-05-08T21:16:15.268Z,74
2023-05-08T21:19:15.184Z,74
2023-05-08T21:22:15.193Z,74
2023-05-08T21:25:15.230Z,74
2023-05-08T21:28:15.249Z,74
2023-05-08T21:31:15.226Z,74
2023-05-08T21:34:15.209Z,74
2023-05-08T21:37:15.192Z,74
2023-05-08T21:40:15.208Z,74
2023-05-08T21:43:15.205Z,74
2023-05-08T21:46:15.218Z,74
2023-05-08T21:49:15.198Z,74
2023-05-08T21:52:15.212Z,75
2023-05-08T21:55:15.409Z,75
2023-05-08T21:58:15.194Z,75
2023-05-08T22:01:15.212Z,75
2023-05-08T22:04:15.180Z,75
2023-05-08T22:07:15.205Z,75
2023-05-08T22:10:15.179Z,75
2023-05-08T22:13:15.197Z,75
2023-05-08T22:16:15.221Z,75
2023-05-08T22:19:15.173Z,75
2023-05-08T22:22:15.184Z,75
2023-05-08T22:25:15.253Z,75
2023-05-08T22:28:15.169Z,75
2023-05-08T22:31:15.161Z,75
2023-05-08T22:34:15.185Z,75
2023-05-08T22:37:15.182Z,76
2023-05-08T22:40:15.158Z,76
2023-05-08T22:43:15.183Z,76
2023-05-08T22:46:15.245Z,76
2023-05-08T22:49:15.161Z,76
2023-05-08T22:52:15.199Z,76
2023-05-08T22:55:15.456Z,76
2023-05-08T22:58:15.175Z,76
2023-05-08T23:01:15.175Z,76
2023-05-08T23:04:15.194Z,76
2023-05-08T23:07:15.168Z,76
2023-05-08T23:10:15.166Z,76
2023-05-08T23:13:15.244Z,76
2023-05-08T23:16:15.177Z,76
2023-05-08T23:19:15.148Z,76
2023-05-08T23:22:15.150Z,76
2023-05-08T23:25:15.538Z,76
2023-05-08T23:28:15.231Z,76
2023-05-08T23:31:15.181Z,76
2023-05-08T23:34:15.145Z,76
2023-05-08T23:37:15.140Z,76
2023-05-08T23:40:15.160Z,76
2023-05-08T23:43:15.160Z,76
2023-05-08T23:46:15.162Z,76
2023-05-08T23:49:15.150Z,76
2023-05-08T23:52:15.141Z,76
2023-05-08T23:55:15.350Z,76
2023-05-08T23:58:15.163Z,76
